Time;durP1;ratioP1;P1;durP2;ratioP2;P2;SDS_P1;SDS_P2;PMS_P1;PMS_P2;Temp;Humidity;BMP_temperature;BMP_pressure;BME280_temperature;BME280_humidity;BME280_pressure;Samples;Min_cycle;Max_cycle;Signal;HPM_P1;HPM_P2
2022/10/17 00:01:40;;;;;;;2.08;1.38;;;20.70;60.80;;;;;;5085472;28;45267;-71
2022/10/17 00:04:07;;;;;;;1.60;1.50;;;20.70;60.90;;;;;;5085728;28;45221;-71
2022/10/17 00:06:33;;;;;;;1.55;1.42;;;20.60;60.80;;;;;;5085575;28;45491;-72
2022/10/17 00:09:00;;;;;;;2.33;1.70;;;20.60;60.80;;;;;;5085172;28;45378;-71
2022/10/17 00:11:27;;;;;;;1.70;1.60;;;20.60;60.80;;;;;;5085420;28;45283;-71
2022/10/17 00:13:56;;;;;;;1.75;1.58;;;20.60;60.80;;;;;;5085558;28;45362;-71
2022/10/17 00:16:26;;;;;;;1.30;1.27;;;20.60;60.80;;;;;;5085755;28;45305;-71
2022/10/17 00:18:53;;;;;;;1.42;1.33;;;20.60;60.80;;;;;;5085283;28;47379;-71
2022/10/17 00:21:20;;;;;;;1.70;1.60;;;20.60;60.80;;;;;;5085290;28;45305;-71
2022/10/17 00:23:46;;;;;;;1.80;1.50;;;20.50;60.80;;;;;;5085886;27;45203;-71
2022/10/17 00:26:13;;;;;;;1.60;1.50;;;20.50;61.00;;;;;;5089442;28;45441;-72
2022/10/17 00:28:40;;;;;;;2.65;1.45;;;20.50;60.90;;;;;;5088895;28;45230;-72
2022/10/17 00:31:08;;;;;;;3.20;1.58;;;20.50;60.80;;;;;;5088741;28;45294;-72
2022/10/17 00:33:35;;;;;;;1.55;1.40;;;20.50;61.60;;;;;;5088828;28;45386;-71
2022/10/17 00:36:04;;;;;;;1.80;1.35;;;20.50;60.90;;;;;;5088974;28;45268;-71
2022/10/17 00:38:30;;;;;;;3.00;1.67;;;20.50;60.80;;;;;;5088629;28;46674;-71
2022/10/17 00:40:57;;;;;;;1.50;1.40;;;20.50;60.80;;;;;;5088832;28;45331;-72
2022/10/17 00:43:25;;;;;;;1.92;1.70;;;20.40;60.70;;;;;;5088382;28;45303;-72
2022/10/17 00:45:52;;;;;;;1.58;1.48;;;20.40;60.90;;;;;;5089015;28;45197;-71
2022/10/17 00:48:20;;;;;;;1.60;1.50;;;20.40;60.90;;;;;;5088349;28;45204;-72
2022/10/17 00:50:47;;;;;;;2.03;1.50;;;20.40;60.90;;;;;;5088339;28;45303;-72
2022/10/17 00:53:14;;;;;;;1.60;1.50;;;20.40;60.90;;;;;;5088532;28;45343;-72
2022/10/17 00:55:44;;;;;;;1.67;1.58;;;20.40;61.60;;;;;;5088800;28;45138;-71
2022/10/17 00:58:11;;;;;;;1.60;1.50;;;20.40;61.00;;;;;;5088275;28;45564;-72
2022/10/17 01:00:38;;;;;;;2.40;1.60;;;20.40;61.00;;;;;;5088343;28;45428;-72
2022/10/17 01:03:05;;;;;;;1.70;1.40;;;20.40;61.70;;;;;;5088427;28;45323;-71
2022/10/17 01:05:33;;;;;;;2.20;1.33;;;20.30;60.90;;;;;;5088645;28;45233;-71
2022/10/17 01:08:00;;;;;;;2.75;1.50;;;20.30;61.00;;;;;;5088237;28;45220;-71
2022/10/17 01:10:29;;;;;;;1.60;1.50;;;20.30;60.90;;;;;;5088125;28;45316;-71
2022/10/17 01:13:00;;;;;;;2.15;1.45;;;20.30;60.90;;;;;;5088231;28;45255;-71
2022/10/17 01:15:37;;;;;;;2.38;1.50;;;20.30;61.00;;;;;;5088386;28;45454;-71
2022/10/17 01:18:13;;;;;;;1.60;1.50;;;20.30;61.00;;;;;;5088069;28;45337;-71
2022/10/17 01:21:13;;;;;;;3.40;1.50;;;20.30;60.80;;;;;;5087863;28;45249;-71
2022/10/17 01:24:13;;;;;;;1.55;1.45;;;20.30;61.00;;;;;;5088371;28;45178;-72
2022/10/17 01:26:50;;;;;;;1.90;1.35;;;20.30;61.00;;;;;;5067063;28;45265;-71
2022/10/17 01:29:34;;;;;;;1.50;1.40;;;20.30;60.90;;;;;;5087988;28;48590;-72
2022/10/17 01:32:03;;;;;;;1.95;1.80;;;20.20;61.00;;;;;;5087824;28;45220;-71
2022/10/17 01:34:32;;;;;;;1.70;1.58;;;20.20;61.00;;;;;;5088222;28;45340;-72
2022/10/17 01:37:01;;;;;;;1.90;1.45;;;20.20;61.00;;;;;;5087315;27;45313;-71
2022/10/17 01:39:30;;;;;;;1.50;1.40;;;20.20;60.90;;;;;;5087802;28;45567;-72
2022/10/17 01:41:59;;;;;;;2.67;1.58;;;20.20;60.90;;;;;;5087685;28;45375;-71
2022/10/17 01:44:29;;;;;;;1.70;1.60;;;20.10;61.00;;;;;;5088045;28;45331;-72
2022/10/17 01:46:58;;;;;;;2.88;1.73;;;20.10;61.00;;;;;;5088018;28;45199;-71
2022/10/17 01:49:26;;;;;;;1.73;1.50;;;20.10;61.70;;;;;;5087504;28;45320;-72
2022/10/17 01:51:55;;;;;;;1.50;1.40;;;20.10;61.10;;;;;;5087468;28;45155;-72
2022/10/17 01:54:24;;;;;;;2.47;1.60;;;20.10;61.10;;;;;;5088008;28;45312;-71
2022/10/17 01:56:53;;;;;;;2.13;1.52;;;20.10;61.00;;;;;;5087909;28;45284;-70
2022/10/17 01:59:21;;;;;;;1.73;1.40;;;20.10;61.10;;;;;;5087444;28;46978;-70
2022/10/17 02:01:49;;;;;;;1.45;1.35;;;20.10;61.00;;;;;;5087484;28;45331;-71
2022/10/17 02:04:16;;;;;;;1.55;1.40;;;20.00;61.00;;;;;;5087525;28;45303;-72
2022/10/17 02:06:44;;;;;;;1.75;1.52;;;20.00;61.00;;;;;;5087597;28;45544;-72
2022/10/17 02:09:21;;;;;;;1.75;1.60;;;20.00;61.00;;;;;;5087437;28;45277;-72
2022/10/17 02:11:54;;;;;;;1.65;1.50;;;20.00;61.00;;;;;;5087013;28;45316;-71
2022/10/17 02:14:25;;;;;;;1.25;1.20;;;20.00;61.00;;;;;;5087281;28;45203;-71
2022/10/17 02:16:55;;;;;;;1.50;1.40;;;20.00;61.00;;;;;;5087432;28;45248;-71
2022/10/17 02:19:38;;;;;;;1.67;1.48;;;20.00;61.10;;;;;;5087083;28;46385;-71
2022/10/17 02:22:14;;;;;;;1.42;1.33;;;20.00;61.00;;;;;;5087292;28;45243;-70
2022/10/17 02:24:45;;;;;;;1.50;1.40;;;20.00;61.00;;;;;;5087159;28;45140;-72
2022/10/17 02:27:14;;;;;;;1.50;1.40;;;19.90;61.00;;;;;;5087370;28;45281;-71
2022/10/17 02:29:46;;;;;;;1.48;1.38;;;19.90;60.90;;;;;;5086812;28;46603;-71
2022/10/17 02:32:16;;;;;;;1.45;1.35;;;19.90;60.90;;;;;;5086921;28;45186;-72
2022/10/17 02:34:43;;;;;;;1.40;1.27;;;19.90;61.10;;;;;;5088055;28;45258;-72
2022/10/17 02:37:12;;;;;;;1.55;1.45;;;19.90;61.10;;;;;;5087851;28;45298;-70
2022/10/17 02:39:39;;;;;;;3.75;1.50;;;19.90;61.10;;;;;;5088153;28;47337;-71
2022/10/17 02:42:08;;;;;;;1.50;1.40;;;19.80;61.00;;;;;;5087635;28;45189;-70
2022/10/17 02:44:35;;;;;;;1.38;1.20;;;19.80;61.10;;;;;;5088000;28;45311;-71
2022/10/17 02:47:03;;;;;;;1.50;1.40;;;19.80;61.10;;;;;;5088068;28;45459;-70
2022/10/17 02:49:31;;;;;;;1.30;1.20;;;19.80;61.10;;;;;;5087637;28;45233;-71
2022/10/17 02:52:01;;;;;;;1.63;1.52;;;19.80;61.10;;;;;;5087666;28;45337;-72
2022/10/17 02:54:33;;;;;;;1.40;1.30;;;19.80;61.10;;;;;;5087646;28;45210;-71
2022/10/17 02:57:02;;;;;;;1.40;1.30;;;19.80;61.00;;;;;;5087921;28;45254;-72
2022/10/17 02:59:29;;;;;;;2.50;1.42;;;19.80;61.10;;;;;;5087643;28;45278;-70
2022/10/17 03:01:56;;;;;;;1.45;1.35;;;19.70;61.10;;;;;;5087642;28;45277;-71
2022/10/17 03:04:23;;;;;;;1.17;1.13;;;19.70;61.10;;;;;;5087752;28;45279;-71
2022/10/17 03:06:50;;;;;;;1.58;1.48;;;19.70;61.20;;;;;;5087919;28;45396;-70
2022/10/17 03:09:17;;;;;;;1.10;1.10;;;19.70;61.20;;;;;;5087112;28;46434;-71
2022/10/17 03:11:45;;;;;;;1.40;1.30;;;19.70;61.20;;;;;;5087308;28;45286;-71
2022/10/17 03:14:12;;;;;;;1.45;1.35;;;19.70;61.20;;;;;;5087125;28;45177;-70
2022/10/17 03:16:38;;;;;;;1.88;1.40;;;19.70;61.80;;;;;;5087279;28;45277;-70
2022/10/17 03:19:06;;;;;;;2.20;1.23;;;19.70;61.10;;;;;;5086472;28;47301;-69
2022/10/17 03:21:35;;;;;;;1.60;1.50;;;19.70;61.10;;;;;;5087137;28;45264;-70
2022/10/17 03:24:02;;;;;;;1.50;1.40;;;19.70;61.10;;;;;;5086951;28;45185;-71
2022/10/17 03:26:28;;;;;;;1.40;1.30;;;19.70;61.20;;;;;;5087142;28;45572;-70
2022/10/17 03:28:57;;;;;;;1.92;1.30;;;19.70;61.10;;;;;;5086669;28;46600;-70
2022/10/17 03:31:24;;;;;;;2.72;1.60;;;19.60;61.10;;;;;;5086877;28;45222;-71
2022/10/17 03:33:50;;;;;;;1.50;1.40;;;19.60;61.00;;;;;;5086939;28;45205;-70
2022/10/17 03:36:18;;;;;;;1.75;1.40;;;19.60;61.10;;;;;;5086745;28;45348;-71
2022/10/17 03:38:45;;;;;;;2.00;1.10;;;19.60;61.20;;;;;;5086506;28;46378;-70
2022/10/17 03:41:12;;;;;;;1.85;1.35;;;19.60;61.20;;;;;;5086724;28;45335;-70
2022/10/17 03:43:39;;;;;;;1.60;1.35;;;19.60;61.10;;;;;;5086649;28;45439;-70
2022/10/17 03:46:07;;;;;;;2.75;1.85;;;19.60;61.20;;;;;;5086742;28;45517;-71
2022/10/17 03:48:34;;;;;;;1.50;1.40;;;19.60;61.10;;;;;;5087372;28;45430;-71
2022/10/17 03:51:02;;;;;;;1.48;1.38;;;19.50;61.10;;;;;;5086575;28;45319;-71
2022/10/17 03:53:28;;;;;;;1.40;1.30;;;19.50;61.10;;;;;;5086777;28;45252;-70
2022/10/17 03:55:56;;;;;;;1.77;1.52;;;19.50;61.10;;;;;;5086736;28;45328;-70
2022/10/17 03:58:23;;;;;;;1.20;1.17;;;19.50;61.10;;;;;;5085619;28;45376;-70
2022/10/17 04:00:50;;;;;;;1.50;1.27;;;19.50;61.00;;;;;;5086204;28;45304;-70
2022/10/17 04:03:18;;;;;;;1.42;1.33;;;19.50;61.00;;;;;;5085975;28;45334;-70
2022/10/17 04:05:45;;;;;;;1.23;1.13;;;19.50;61.10;;;;;;5086458;28;45170;-71
2022/10/17 04:08:11;;;;;;;1.40;1.30;;;19.50;61.00;;;;;;5086191;28;45458;-70
2022/10/17 04:10:38;;;;;;;1.50;1.40;;;19.50;61.20;;;;;;5086021;28;45511;-71
2022/10/17 04:13:05;;;;;;;1.80;1.42;;;19.50;61.10;;;;;;5086603;28;45417;-70
2022/10/17 04:15:32;;;;;;;2.00;1.30;;;19.40;61.10;;;;;;5086380;28;45317;-70
2022/10/17 04:17:59;;;;;;;1.20;1.20;;;19.40;62.00;;;;;;5085878;28;46190;-70
2022/10/17 04:20:27;;;;;;;1.92;1.40;;;19.40;61.10;;;;;;5086025;28;45182;-70
2022/10/17 04:22:54;;;;;;;1.80;1.70;;;19.40;61.10;;;;;;5086293;28;45289;-71
2022/10/17 04:25:21;;;;;;;1.50;1.40;;;19.40;61.20;;;;;;5086390;28;45308;-70
2022/10/17 04:27:48;;;;;;;1.50;1.40;;;19.40;61.20;;;;;;5085809;28;47338;-70
2022/10/17 04:30:15;;;;;;;1.17;1.10;;;19.40;61.20;;;;;;5085917;28;45265;-70
2022/10/17 04:32:42;;;;;;;1.67;1.52;;;19.40;61.20;;;;;;5086027;28;45226;-70
2022/10/17 04:35:09;;;;;;;1.92;1.33;;;19.40;61.20;;;;;;5086315;28;45560;-70
2022/10/17 04:37:37;;;;;;;2.45;1.70;;;19.40;61.20;;;;;;5085571;28;46404;-70
2022/10/17 04:40:05;;;;;;;2.15;1.40;;;19.40;61.10;;;;;;5085859;28;45316;-70
2022/10/17 04:42:32;;;;;;;1.98;1.60;;;19.40;61.00;;;;;;5086037;28;45147;-70
2022/10/17 04:44:59;;;;;;;1.40;1.30;;;19.30;61.20;;;;;;5086395;28;45413;-71
2022/10/17 04:47:26;;;;;;;2.17;1.50;;;19.30;61.10;;;;;;5085531;28;46194;-69
2022/10/17 04:49:52;;;;;;;1.75;1.23;;;19.30;61.00;;;;;;5085626;28;45339;-71
2022/10/17 04:52:19;;;;;;;1.45;1.35;;;19.30;61.20;;;;;;5086335;28;45181;-71
2022/10/17 04:54:47;;;;;;;1.98;1.23;;;19.30;61.20;;;;;;5086352;28;45185;-71
2022/10/17 04:57:14;;;;;;;1.60;1.50;;;19.30;61.20;;;;;;5085920;28;47320;-71
2022/10/17 04:59:41;;;;;;;1.48;1.38;;;19.30;61.20;;;;;;5086150;28;45289;-71
2022/10/17 05:02:08;;;;;;;1.58;1.48;;;19.20;61.20;;;;;;5085855;28;45205;-71
2022/10/17 05:04:35;;;;;;;1.40;1.30;;;19.20;61.00;;;;;;5086254;28;45466;-70
2022/10/17 05:07:02;;;;;;;1.30;1.20;;;19.20;61.20;;;;;;5085321;28;46478;-70
2022/10/17 05:09:29;;;;;;;1.50;1.40;;;19.20;61.30;;;;;;5085422;28;45308;-70
2022/10/17 05:11:57;;;;;;;1.45;1.35;;;19.20;61.30;;;;;;5087976;28;45272;-70
2022/10/17 05:14:24;;;;;;;1.83;1.65;;;19.20;61.20;;;;;;5089240;28;45185;-70
2022/10/17 05:16:51;;;;;;;1.48;1.38;;;19.20;61.10;;;;;;5088813;28;45300;-70
2022/10/17 05:19:17;;;;;;;1.73;1.50;;;19.20;61.10;;;;;;5088768;28;45136;-70
2022/10/17 05:21:44;;;;;;;1.73;1.63;;;19.20;61.10;;;;;;5089208;28;45372;-71
2022/10/17 05:24:13;;;;;;;1.80;1.60;;;19.20;61.20;;;;;;5089185;28;45237;-71
2022/10/17 05:26:40;;;;;;;1.70;1.40;;;19.20;61.10;;;;;;5088656;28;45241;-71
2022/10/17 05:29:09;;;;;;;1.50;1.40;;;19.20;61.00;;;;;;5088497;28;45287;-71
2022/10/17 05:31:35;;;;;;;1.52;1.40;;;19.20;61.10;;;;;;5088724;28;45352;-71
2022/10/17 05:34:02;;;;;;;1.70;1.58;;;19.20;61.10;;;;;;5088730;28;45424;-71
2022/10/17 05:36:29;;;;;;;1.30;1.20;;;19.10;61.10;;;;;;5088716;28;46424;-71
2022/10/17 05:38:56;;;;;;;1.90;1.25;;;19.10;61.10;;;;;;5089045;28;45347;-71
2022/10/17 05:41:23;;;;;;;2.28;1.70;;;19.10;61.30;;;;;;5088744;28;45198;-71
2022/10/17 05:43:50;;;;;;;1.83;1.60;;;19.00;61.80;;;;;;5088536;28;45411;-71
2022/10/17 05:46:18;;;;;;;4.70;1.63;;;19.00;61.20;;;;;;5088901;28;45495;-71
2022/10/17 05:48:45;;;;;;;3.38;1.92;;;19.00;61.30;;;;;;5088757;28;45337;-71
2022/10/17 05:51:11;;;;;;;1.92;1.70;;;19.00;61.40;;;;;;5089012;28;45224;-71
2022/10/17 05:53:40;;;;;;;2.05;1.63;;;19.00;61.40;;;;;;5088869;28;45207;-71
2022/10/17 05:56:08;;;;;;;2.13;1.65;;;19.00;61.30;;;;;;5088668;28;45498;-71
2022/10/17 05:58:35;;;;;;;2.08;1.48;;;19.00;62.00;;;;;;5088670;28;45247;-71
2022/10/17 06:01:03;;;;;;;2.55;1.83;;;19.00;61.40;;;;;;5088431;28;45257;-71
2022/10/17 06:03:31;;;;;;;2.05;1.85;;;19.00;61.30;;;;;;5088603;28;45523;-71
2022/10/17 06:06:03;;;;;;;1.80;1.50;;;19.00;62.10;;;;;;5088119;28;46495;-71
2022/10/17 06:08:30;;;;;;;1.98;1.77;;;19.00;61.30;;;;;;5087904;28;45384;-71
2022/10/17 06:10:57;;;;;;;2.25;1.60;;;19.00;61.30;;;;;;5084966;27;45686;-71
2022/10/17 06:13:24;;;;;;;1.52;1.42;;;19.00;61.30;;;;;;5088644;28;45316;-72
2022/10/17 06:15:51;;;;;;;2.75;1.80;;;19.00;61.30;;;;;;5088287;28;45520;-71
2022/10/17 06:18:17;;;;;;;2.20;1.77;;;19.00;61.40;;;;;;5087984;28;45200;-72
2022/10/17 06:20:46;;;;;;;2.53;2.05;;;18.90;61.40;;;;;;5087883;28;45205;-73
2022/10/17 06:23:12;;;;;;;2.58;1.80;;;18.90;61.70;;;;;;5088016;27;45320;-73
2022/10/17 06:25:39;;;;;;;2.05;1.58;;;18.90;61.60;;;;;;5087929;28;45303;-72
2022/10/17 06:28:06;;;;;;;1.45;1.35;;;18.90;61.50;;;;;;5088807;28;45265;-72
2022/10/17 06:30:33;;;;;;;3.13;1.73;;;18.90;61.70;;;;;;5087915;28;45265;-72
2022/10/17 06:33:00;;;;;;;1.75;1.40;;;18.90;61.70;;;;;;5088210;28;45399;-71
2022/10/17 06:35:27;;;;;;;2.08;1.23;;;18.90;61.70;;;;;;5087822;28;47624;-72
2022/10/17 06:37:55;;;;;;;1.63;1.52;;;18.90;61.70;;;;;;5087856;28;45286;-72
2022/10/17 06:40:22;;;;;;;1.85;1.60;;;18.90;61.70;;;;;;5088146;28;45136;-72
2022/10/17 06:42:49;;;;;;;1.95;1.70;;;18.90;61.90;;;;;;5088239;28;45412;-73
2022/10/17 06:45:16;;;;;;;1.88;1.77;;;18.90;61.90;;;;;;5088223;28;46530;-72
2022/10/17 06:47:42;;;;;;;1.70;1.60;;;18.90;61.90;;;;;;5088141;28;45281;-73
2022/10/17 06:50:09;;;;;;;2.90;1.65;;;18.90;61.90;;;;;;5088477;28;45273;-73
2022/10/17 06:52:36;;;;;;;4.30;1.90;;;18.90;61.90;;;;;;5086167;28;45374;-71
2022/10/17 06:55:05;;;;;;;2.17;1.75;;;18.90;61.90;;;;;;5088555;28;47324;-72
2022/10/17 06:57:32;;;;;;;1.63;1.52;;;18.90;61.70;;;;;;5087914;28;45312;-73
2022/10/17 06:59:59;;;;;;;3.63;1.75;;;18.90;61.90;;;;;;5088434;28;45438;-72
2022/10/17 07:02:26;;;;;;;2.65;1.67;;;18.90;61.80;;;;;;5087688;28;45467;-73
2022/10/17 07:04:52;;;;;;;3.20;1.80;;;18.90;61.70;;;;;;5087938;28;45603;-72
2022/10/17 07:07:19;;;;;;;2.05;1.85;;;18.90;61.80;;;;;;5087524;28;45282;-73
2022/10/17 07:09:46;;;;;;;2.42;1.80;;;18.90;61.80;;;;;;5087872;28;45331;-72
2022/10/17 07:12:14;;;;;;;5.72;1.95;;;18.90;61.90;;;;;;5087647;28;45457;-72
2022/10/17 07:14:41;;;;;;;1.92;1.63;;;18.90;62.00;;;;;;5087380;28;45417;-72
2022/10/17 07:17:09;;;;;;;5.75;1.92;;;18.90;61.90;;;;;;5087398;28;45197;-72
2022/10/17 07:19:36;;;;;;;2.50;1.80;;;18.90;61.90;;;;;;5088089;28;45259;-72
2022/10/17 07:22:03;;;;;;;3.25;1.60;;;18.90;61.90;;;;;;5087883;28;45232;-72
2022/10/17 07:24:29;;;;;;;2.53;1.70;;;18.90;61.90;;;;;;5087485;28;47344;-72
2022/10/17 07:26:56;;;;;;;2.03;1.65;;;18.90;61.90;;;;;;5087487;28;45294;-72
2022/10/17 07:29:24;;;;;;;2.88;1.70;;;18.90;62.00;;;;;;5087364;28;45266;-72
2022/10/17 07:31:51;;;;;;;2.55;1.65;;;19.00;61.80;;;;;;5087594;28;45336;-71
2022/10/17 07:34:18;;;;;;;2.67;1.70;;;19.00;62.00;;;;;;5083562;27;46501;-72
2022/10/17 07:36:45;;;;;;;1.90;1.45;;;19.00;61.80;;;;;;5087072;28;45348;-73
2022/10/17 07:39:12;;;;;;;3.00;1.70;;;19.00;61.60;;;;;;5087546;28;45213;-73
2022/10/17 07:41:39;;;;;;;2.88;1.85;;;19.00;61.70;;;;;;5087682;28;45126;-72
2022/10/17 07:44:06;;;;;;;3.13;1.58;;;19.00;61.70;;;;;;5086648;28;46681;-72
2022/10/17 07:46:34;;;;;;;4.60;2.15;;;19.00;61.80;;;;;;5086169;28;45533;-73
2022/10/17 07:49:01;;;;;;;4.70;1.90;;;19.00;61.70;;;;;;5087086;28;45318;-72
2022/10/17 07:51:28;;;;;;;2.92;1.60;;;19.00;61.80;;;;;;5087626;28;45173;-73
2022/10/17 07:53:55;;;;;;;1.50;1.40;;;19.00;61.80;;;;;;5086729;28;45193;-72
2022/10/17 07:56:23;;;;;;;2.30;1.88;;;19.00;61.80;;;;;;5087311;28;45391;-72
2022/10/17 07:58:50;;;;;;;3.00;2.00;;;19.00;61.70;;;;;;5086954;28;45303;-73
2022/10/17 08:01:17;;;;;;;3.63;1.70;;;19.00;61.70;;;;;;5088712;28;45249;-73
2022/10/17 08:03:47;;;;;;;2.33;1.70;;;19.10;61.90;;;;;;5087332;28;47342;-72
2022/10/17 08:06:14;;;;;;;3.33;1.67;;;19.10;61.70;;;;;;5087084;28;45293;-72
2022/10/17 08:08:41;;;;;;;3.63;1.88;;;19.10;61.70;;;;;;5087115;28;45273;-73
2022/10/17 08:11:09;;;;;;;2.03;1.50;;;19.10;61.70;;;;;;5087175;28;45200;-73
2022/10/17 08:13:36;;;;;;;1.90;1.70;;;19.10;61.70;;;;;;5086729;28;45201;-73
2022/10/17 08:16:04;;;;;;;1.83;1.73;;;19.10;61.60;;;;;;5086722;28;45418;-73
2022/10/17 08:18:31;;;;;;;2.05;1.80;;;19.20;61.50;;;;;;5087078;28;45270;-73
2022/10/17 08:21:00;;;;;;;2.25;2.05;;;19.20;61.60;;;;;;5087200;28;45325;-73
2022/10/17 08:23:30;;;;;;;1.92;1.70;;;19.20;61.50;;;;;;5086764;28;45316;-72
2022/10/17 08:25:59;;;;;;;3.17;1.55;;;19.20;61.50;;;;;;5086846;28;45252;-73
2022/10/17 08:28:26;;;;;;;1.73;1.63;;;19.20;61.40;;;;;;5086694;28;45180;-73
2022/10/17 08:30:52;;;;;;;1.92;1.75;;;19.20;61.40;;;;;;5086923;28;45352;-73
2022/10/17 08:33:19;;;;;;;2.33;1.65;;;19.20;61.30;;;;;;5085837;28;46725;-73
2022/10/17 08:35:46;;;;;;;2.15;1.70;;;19.20;61.30;;;;;;5086002;28;45343;-73
2022/10/17 08:38:14;;;;;;;3.67;1.70;;;19.30;61.30;;;;;;5085957;28;45305;-73
2022/10/17 08:40:42;;;;;;;2.00;1.40;;;19.30;61.20;;;;;;5086054;28;45462;-74
2022/10/17 08:43:19;;;;;;;1.73;1.50;;;19.30;61.20;;;;;;5085442;28;45419;-73
2022/10/17 08:45:47;;;;;;;1.70;1.60;;;19.30;61.20;;;;;;5087511;27;45453;-73
2022/10/17 08:48:17;;;;;;;2.75;1.70;;;19.30;61.20;;;;;;5089487;28;45216;-73
2022/10/17 08:50:45;;;;;;;1.52;1.42;;;19.30;61.20;;;;;;5089668;28;45284;-73
2022/10/17 08:53:19;;;;;;;1.80;1.70;;;19.40;61.30;;;;;;5086529;28;46801;-73
2022/10/17 08:55:47;;;;;;;3.80;1.73;;;19.40;61.20;;;;;;5089127;28;45339;-73
2022/10/17 08:58:15;;;;;;;2.53;1.70;;;19.40;61.10;;;;;;5088552;28;45297;-73
2022/10/17 09:00:45;;;;;;;1.75;1.60;;;19.40;61.20;;;;;;5089451;28;45220;-73
2022/10/17 09:03:19;;;;;;;1.63;1.50;;;19.40;61.20;;;;;;5089148;28;45429;-72
2022/10/17 09:05:50;;;;;;;1.35;1.33;;;19.40;61.20;;;;;;5089120;28;45313;-73
2022/10/17 09:08:31;;;;;;;2.08;1.73;;;19.40;61.20;;;;;;5089409;28;45286;-72
2022/10/17 09:11:00;;;;;;;1.95;1.75;;;19.50;62.10;;;;;;5069027;28;45190;-73
2022/10/17 09:13:39;;;;;;;1.55;1.45;;;19.50;61.30;;;;;;5068487;28;46719;-73
2022/10/17 09:16:23;;;;;;;2.30;1.70;;;19.50;61.30;;;;;;5068585;28;45379;-74
2022/10/17 09:18:56;;;;;;;1.70;1.50;;;19.50;61.20;;;;;;5068590;28;45268;-74
2022/10/17 09:21:24;;;;;;;2.17;1.70;;;19.50;61.20;;;;;;5068764;28;45333;-75
2022/10/17 09:23:54;;;;;;;1.92;1.80;;;19.50;61.10;;;;;;5068410;28;45262;-75
2022/10/17 09:26:21;;;;;;;1.48;1.38;;;19.60;61.10;;;;;;5068541;28;45143;-74
2022/10/17 09:28:52;;;;;;;1.60;1.50;;;19.60;61.80;;;;;;5068465;28;45413;-75
2022/10/17 09:31:21;;;;;;;1.92;1.48;;;19.60;61.10;;;;;;5068793;28;45333;-75
2022/10/17 09:33:49;;;;;;;2.53;1.55;;;19.60;61.10;;;;;;5068178;28;45463;-75
2022/10/17 09:36:18;;;;;;;1.50;1.40;;;19.70;61.20;;;;;;5075734;28;45327;-75
2022/10/17 09:38:47;;;;;;;2.28;1.90;;;19.70;61.10;;;;;;5088770;28;45262;-75
2022/10/17 09:41:18;;;;;;;1.90;1.50;;;19.70;61.20;;;;;;5088771;28;45369;-74
2022/10/17 09:43:46;;;;;;;1.77;1.60;;;19.80;61.10;;;;;;5088046;28;46715;-75
2022/10/17 09:46:17;;;;;;;2.30;1.52;;;19.80;61.00;;;;;;5088343;28;45253;-75
2022/10/17 09:48:45;;;;;;;1.75;1.60;;;19.80;60.80;;;;;;5088680;28;45203;-75
2022/10/17 09:51:12;;;;;;;1.60;1.50;;;19.90;60.90;;;;;;5088728;28;45602;-75
2022/10/17 09:53:40;;;;;;;1.50;1.40;;;19.90;60.50;;;;;;5088091;28;46920;-75
2022/10/17 09:56:10;;;;;;;2.10;1.60;;;19.90;60.30;;;;;;5088129;28;45333;-75
2022/10/17 09:58:42;;;;;;;1.90;1.70;;;20.00;60.10;;;;;;5087960;28;45217;-75
2022/10/17 10:01:17;;;;;;;2.00;1.80;;;20.10;60.20;;;;;;5088597;28;45217;-75
2022/10/17 10:03:44;;;;;;;1.63;1.40;;;20.10;59.90;;;;;;5087077;27;46352;-74
2022/10/17 10:06:14;;;;;;;2.10;1.90;;;20.10;60.70;;;;;;5088244;28;45282;-73
2022/10/17 10:08:48;;;;;;;2.10;1.60;;;20.20;60.70;;;;;;5088205;28;45421;-73
2022/10/17 10:11:16;;;;;;;1.92;1.67;;;20.20;60.80;;;;;;5088314;28;45392;-75
2022/10/17 10:13:47;;;;;;;1.60;1.50;;;20.30;60.90;;;;;;5087846;28;45454;-73
2022/10/17 10:16:23;;;;;;;2.65;1.48;;;20.30;61.10;;;;;;5087373;28;45218;-72
2022/10/17 10:18:50;;;;;;;1.60;1.45;;;20.30;60.80;;;;;;5087506;28;45320;-73
2022/10/17 10:21:18;;;;;;;2.10;1.90;;;20.40;60.90;;;;;;5087675;28;45388;-73
2022/10/17 10:23:46;;;;;;;2.08;1.88;;;20.50;60.40;;;;;;5087685;28;46703;-73
2022/10/17 10:26:22;;;;;;;2.30;2.10;;;20.50;60.20;;;;;;5088031;28;45262;-74
2022/10/17 10:28:58;;;;;;;1.60;1.50;;;20.60;60.00;;;;;;5087676;28;45391;-75
2022/10/17 10:31:31;;;;;;;1.73;1.42;;;20.60;60.00;;;;;;5088179;28;45429;-75
2022/10/17 10:33:59;;;;;;;1.30;1.20;;;20.70;60.00;;;;;;5087674;28;45505;-74
2022/10/17 10:36:25;;;;;;;2.60;1.85;;;20.70;60.10;;;;;;5087732;28;45344;-75
2022/10/17 10:38:53;;;;;;;1.63;1.52;;;20.80;60.10;;;;;;5087613;28;45282;-74
2022/10/17 10:41:20;;;;;;;1.92;1.50;;;20.80;60.20;;;;;;5087922;28;45416;-75
2022/10/17 10:43:47;;;;;;;2.08;1.60;;;20.90;60.30;;;;;;5087215;28;45198;-75
2022/10/17 10:46:22;;;;;;;1.67;1.52;;;20.90;60.20;;;;;;5087380;28;45383;-74
2022/10/17 10:48:50;;;;;;;1.70;1.60;;;21.00;60.30;;;;;;5087504;28;45375;-75
2022/10/17 10:51:19;;;;;;;4.68;1.63;;;21.10;60.40;;;;;;5087604;28;45328;-75
2022/10/17 10:53:48;;;;;;;2.90;1.60;;;21.10;60.40;;;;;;5087238;28;45196;-75
2022/10/17 10:56:17;;;;;;;1.60;1.50;;;21.20;60.40;;;;;;5087327;28;45242;-74
2022/10/17 10:58:51;;;;;;;1.98;1.40;;;21.20;60.50;;;;;;5087428;28;45292;-75
2022/10/17 11:01:25;;;;;;;1.90;1.75;;;21.30;60.40;;;;;;5087673;28;45372;-75
2022/10/17 11:04:02;;;;;;;2.83;1.90;;;21.30;60.60;;;;;;5087101;28;46415;-75
2022/10/17 11:06:30;;;;;;;1.85;1.55;;;21.40;60.50;;;;;;5087089;28;45212;-74
2022/10/17 11:09:06;;;;;;;1.58;1.48;;;21.50;60.50;;;;;;5085819;27;45222;-75
2022/10/17 11:11:37;;;;;;;1.63;1.52;;;21.50;60.50;;;;;;5087462;28;45197;-75
2022/10/17 11:14:06;;;;;;;2.15;1.73;;;21.50;60.50;;;;;;5083884;28;45577;-76
2022/10/17 11:16:37;;;;;;;1.40;1.30;;;21.60;60.20;;;;;;5084660;28;45658;-76
2022/10/17 11:19:12;;;;;;;1.50;1.40;;;21.60;60.60;;;;;;5083494;28;45447;-74
2022/10/17 11:21:43;;;;;;;11.48;2.30;;;21.70;60.80;;;;;;5085229;28;45298;-75
2022/10/17 11:24:14;;;;;;;4.05;1.85;;;21.80;60.40;;;;;;5085633;28;45926;-74
2022/10/17 11:26:43;;;;;;;4.03;1.75;;;21.80;60.30;;;;;;5082163;27;45457;-75
2022/10/17 11:29:10;;;;;;;2.08;1.83;;;21.90;60.20;;;;;;5091241;27;45367;-74
2022/10/17 11:31:40;;;;;;;3.38;1.50;;;21.90;60.20;;;;;;5083246;28;45562;-75
2022/10/17 11:34:09;;;;;;;1.90;1.60;;;22.00;60.30;;;;;;5076388;28;45586;-71
2022/10/17 11:36:37;;;;;;;5.57;2.03;;;22.10;60.70;;;;;;5093538;27;45260;-72
2022/10/17 11:39:06;;;;;;;2.00;1.65;;;22.10;60.50;;;;;;5094229;27;45202;-74
2022/10/17 11:41:36;;;;;;;3.45;1.92;;;22.20;60.20;;;;;;5086667;28;45195;-72
2022/10/17 11:44:07;;;;;;;2.10;1.50;;;22.20;60.10;;;;;;5086229;28;46965;-72
2022/10/17 11:46:35;;;;;;;1.50;1.40;;;22.20;60.00;;;;;;5082048;28;45202;-74
2022/10/17 11:49:06;;;;;;;2.03;1.73;;;22.30;59.90;;;;;;5080719;28;45270;-73
2022/10/17 11:51:40;;;;;;;2.08;1.63;;;22.30;59.60;;;;;;5082564;27;45494;-73
2022/10/17 11:54:10;;;;;;;2.08;1.40;;;22.40;59.70;;;;;;5087774;28;46659;-73
2022/10/17 11:56:40;;;;;;;2.35;1.80;;;22.40;59.50;;;;;;5088342;28;45360;-73
2022/10/17 11:59:34;;;;;;;2.97;1.60;;;22.40;59.50;;;;;;5088465;28;45190;-73
2022/10/17 12:02:03;;;;;;;3.42;1.40;;;22.50;59.70;;;;;;5082963;28;45444;-73
2022/10/17 12:04:45;;;;;;;3.33;2.33;;;22.60;59.70;;;;;;5087650;28;46402;-72
2022/10/17 12:07:14;;;;;;;2.25;1.50;;;22.60;59.70;;;;;;5087204;28;45274;-72
2022/10/17 12:09:47;;;;;;;2.17;1.83;;;22.60;59.70;;;;;;5086368;28;45326;-72
2022/10/17 12:12:24;;;;;;;2.60;1.40;;;22.70;59.70;;;;;;5086701;28;45206;-72
2022/10/17 12:14:51;;;;;;;1.58;1.48;;;22.70;59.80;;;;;;5086125;28;45341;-72
2022/10/17 12:17:33;;;;;;;2.47;1.40;;;22.70;60.00;;;;;;5087185;27;45483;-73
2022/10/17 12:20:27;;;;;;;1.70;1.33;;;22.80;59.30;;;;;;5102634;27;45509;-73
2022/10/17 12:22:54;;;;;;;2.83;1.25;;;23.00;57.60;;;;;;5105594;27;45418;-74
2022/10/17 12:25:22;;;;;;;1.25;1.15;;;23.10;57.10;;;;;;5103912;27;47639;-73
2022/10/17 12:27:49;;;;;;;3.65;1.20;;;23.20;56.50;;;;;;5102872;27;45478;-73
2022/10/17 12:30:21;;;;;;;1.75;1.20;;;23.30;56.30;;;;;;5104821;27;45302;-73
2022/10/17 12:33:00;;;;;;;2.63;1.20;;;23.30;55.80;;;;;;5103338;27;45431;-73
2022/10/17 12:35:29;;;;;;;3.20;1.20;;;23.40;55.10;;;;;;5100823;27;45503;-73
2022/10/17 12:38:25;;;;;;;0.98;0.90;;;23.50;54.90;;;;;;5102296;27;45448;-73
2022/10/17 12:40:57;;;;;;;1.00;1.00;;;23.60;54.10;;;;;;5104203;27;45455;-73
2022/10/17 12:43:57;;;;;;;1.40;1.10;;;23.60;53.90;;;;;;5105925;27;45446;-73
2022/10/17 12:46:49;;;;;;;2.55;1.15;;;23.70;52.90;;;;;;5102098;27;46376;-73
2022/10/17 12:49:21;;;;;;;1.70;1.10;;;23.80;53.40;;;;;;5083052;27;45491;-73
2022/10/17 12:52:17;;;;;;;1.13;1.02;;;23.80;53.10;;;;;;5105508;27;45377;-73
2022/10/17 12:54:45;;;;;;;2.80;1.10;;;23.90;52.70;;;;;;5101818;27;45404;-73
2022/10/17 12:57:15;;;;;;;1.20;1.00;;;24.00;53.70;;;;;;5104902;27;46605;-73
2022/10/17 12:59:43;;;;;;;2.72;1.20;;;24.00;52.60;;;;;;5101011;27;45927;-73